createdAt,value
2017-05-10T00:00:45.576Z,5
2017-05-10T00:10:44.804Z,6
2017-05-10T00:20:43.840Z,6
2017-05-10T00:30:43.880Z,5
2017-05-10T00:40:44.100Z,5
2017-05-10T00:50:43.815Z,6
2017-05-10T01:00:44.228Z,6
2017-05-10T01:10:45.129Z,6
2017-05-10T01:20:44.251Z,7
2017-05-10T01:30:45.100Z,6
2017-05-10T01:40:43.840Z,6
2017-05-10T01:50:43.937Z,6
2017-05-10T02:00:43.902Z,6
2017-05-10T02:10:43.818Z,8
2017-05-10T02:20:43.918Z,7
2017-05-10T02:30:43.811Z,6
2017-05-10T02:40:43.782Z,7
2017-05-10T02:50:43.782Z,8
2017-05-10T03:00:43.775Z,7
2017-05-10T03:10:43.806Z,7
2017-05-10T03:20:43.839Z,9
2017-05-10T03:30:43.816Z,7
2017-05-10T03:40:44.423Z,8
2017-05-10T03:50:43.777Z,8
2017-05-10T04:00:43.776Z,8
2017-05-10T04:10:44.181Z,9
2017-05-10T04:20:43.832Z,7
2017-05-10T04:30:44.750Z,9
2017-05-10T04:40:43.762Z,9
2017-05-10T04:50:43.863Z,9
2017-05-10T05:00:43.787Z,10
2017-05-10T05:10:43.761Z,9
2017-05-10T05:20:45.907Z,8
2017-05-10T05:30:43.891Z,9
2017-05-10T05:40:43.770Z,8
2017-05-10T05:50:44.116Z,9
2017-05-10T06:00:43.847Z,8
2017-05-10T06:10:43.755Z,6
2017-05-10T06:20:43.809Z,5
2017-05-10T06:30:43.752Z,4
2017-05-10T06:40:43.811Z,5
2017-05-10T06:50:44.179Z,3
2017-05-10T07:00:43.770Z,3
2017-05-10T07:10:43.778Z,4
2017-05-10T07:20:44.784Z,3
2017-05-10T07:30:43.744Z,3
2017-05-10T07:40:45.765Z,2
2017-05-10T07:50:44.202Z,2
2017-05-10T08:00:43.837Z,2
2017-05-10T08:10:44.187Z,2
2017-05-10T08:20:43.855Z,3
2017-05-10T08:30:43.802Z,3
2017-05-10T08:40:43.859Z,3
2017-05-10T08:50:43.815Z,3
2017-05-10T09:00:43.803Z,5
2017-05-10T09:10:43.848Z,4
2017-05-10T09:20:43.784Z,5
2017-05-10T09:30:43.815Z,5
2017-05-10T09:40:43.874Z,6
2017-05-10T09:50:43.831Z,6
2017-05-10T10:00:43.849Z,7
2017-05-10T10:10:43.826Z,7
2017-05-10T10:20:43.776Z,7
2017-05-10T10:30:43.882Z,7
2017-05-10T10:40:43.818Z,7
2017-05-10T10:50:43.882Z,6
2017-05-10T11:00:43.811Z,7
2017-05-10T11:10:44.904Z,7
2017-05-10T11:20:44.965Z,7
2017-05-10T11:30:44.535Z,7
2017-05-10T11:40:43.812Z,8
2017-05-10T11:50:43.838Z,9
2017-05-10T12:00:43.786Z,7
2017-05-10T12:10:43.797Z,7
2017-05-10T12:20:43.910Z,8
2017-05-10T12:30:43.793Z,7
2017-05-10T12:40:43.861Z,8
2017-05-10T12:50:43.805Z,7
2017-05-10T13:00:43.820Z,8
2017-05-10T13:10:43.815Z,7
2017-05-10T13:20:43.801Z,8
2017-05-10T13:30:43.833Z,8
2017-05-10T13:40:43.805Z,8
2017-05-10T13:50:43.785Z,9
2017-05-10T14:00:43.793Z,10
2017-05-10T14:10:43.824Z,9
2017-05-10T14:20:43.846Z,9
2017-05-10T14:30:43.829Z,9
2017-05-10T14:40:44.215Z,9
2017-05-10T14:50:43.838Z,8
2017-05-10T15:00:43.795Z,9
2017-05-10T15:10:43.824Z,10
2017-05-10T15:20:43.894Z,9
2017-05-10T15:30:43.836Z,9
2017-05-10T15:40:43.810Z,9
2017-05-10T15:50:43.824Z,9
2017-05-10T16:00:43.859Z,9
2017-05-10T16:10:43.813Z,9
2017-05-10T16:20:44.842Z,8
2017-05-10T16:30:43.848Z,8
2017-05-10T16:40:53.753Z,10
2017-05-10T16:50:43.825Z,10
2017-05-10T17:00:43.916Z,8
2017-05-10T17:10:43.838Z,9
2017-05-10T17:20:43.841Z,8
2017-05-10T17:30:43.844Z,8
2017-05-10T17:40:43.899Z,9
2017-05-10T17:50:43.869Z,7
2017-05-10T18:00:43.874Z,8
2017-05-10T18:10:43.894Z,8
2017-05-10T18:20:43.857Z,9
2017-05-10T18:30:44.505Z,8
2017-05-10T18:40:43.904Z,8
2017-05-10T19:00:43.955Z,10
2017-05-10T19:10:43.895Z,8
2017-05-10T19:20:43.825Z,8
2017-05-10T19:30:43.973Z,9
2017-05-10T19:40:43.835Z,8
2017-05-10T19:50:43.852Z,9
2017-05-10T20:00:43.870Z,8
2017-05-10T20:10:43.914Z,8
2017-05-10T20:20:43.834Z,8
2017-05-10T20:30:43.984Z,8
2017-05-10T20:40:43.810Z,8
2017-05-10T20:50:43.868Z,8
2017-05-10T21:00:44.010Z,8
2017-05-10T21:10:44.639Z,8
2017-05-10T21:20:44.058Z,8
2017-05-10T21:30:48.488Z,9
2017-05-10T21:40:43.854Z,9
2017-05-10T21:50:44.042Z,11
2017-05-10T22:00:43.856Z,9
2017-05-10T22:10:43.978Z,9
2017-05-10T22:20:43.863Z,9
2017-05-10T22:30:44.709Z,8
2017-05-10T22:40:43.872Z,8
2017-05-10T22:50:44.045Z,9
2017-05-10T23:00:43.763Z,9
2017-05-10T23:10:43.794Z,8
2017-05-10T23:20:43.792Z,10
2017-05-10T23:30:43.799Z,9
2017-05-10T23:40:43.779Z,9
2017-05-10T23:50:44.039Z,10
